Terminal Aerodrome Forecast
Issued by NWS

Home | Current Version | Previous Version | Text Only | Print | Product List | Glossary On
Versions: 1 2 3 4 5 6 7 8 9 10 11 12 13 14 15 16
000
FTUS46 KMFR 270535
TAFRBG
TAF
KRBG 270535Z 2706/2806 VRB03KT P6SM FEW030 SCT060
     FM270900 35002KT P6SM BKN015 OVC025
     FM271300 VRB02KT P6SM -SHRA SCT015 BKN025 OVC060
     FM271800 31007KT P6SM -SHRA SCT020 BKN035 OVC070=

USA.gov is the U.S. government's official web portal to all federal, state and local government web resources and services.